Flight Briefing for CPX228

Departure Arrival
Ted Stevens Anchorage International Airport (PANC)
Click to view FAA NOTAMS
Seattle-Tacoma International Airport (KSEA)
Click to view FAA NOTAMS
Departure Time Arrival Time
0000 UTC 0330 UTC
Aircraft Distance
B767-300BDSF 1257nm
Departure METAR Arrival METAR
PANC 271153Z 14012G21KT 10SM CLR 12/05 A2981 RMK AO2 SLP095 70074 T01170050 10117 20106 51021 KSEA 271153Z 13004KT 10SM FEW100 SCT200 13/11 A2994 RMK AO2 SLP144 T01330111 10189 20133 53006
Suggested Route
NOEND4 NOEND LAIRE BKA DUGGS YYJ MARNR7


View recent IFR Routes data
Notes



Charts and Procedures

Charts for PANC
No chart available
Charts for KSEA
No chart available

Windy.com Weather Map